Brenham, Texas
Current Conditions -  °F | °C
As of 8:15 AM on Thursday 27 Nov 2014 (Local Time) from K11R Reporting Station
Clear Clear  
Wind Chill: 48°   Ceiling: Unl
Heat Index: 48°   Visibility: 10mi
Dew Point: 37°   Wind: 3mph
Humidity: 65%   Direction: 10°N
Pressure: 30.5"   Gusts: NA
Location:  30.17°N, 96.4°W
Report Text: K11R 271415Z AUTO 01003KT 10SM CLR 09/03 A3050 RMK AO2 T00870025
Loading
Personal Weather Stations






























Interactive Weather Map New forecast layout! Learn more

10-Day Weather Forecast

Advertisements
Track Severe Weather on mobile